Airfield :
LOGIN :

Register | Disclaimer

   EN    FR    IT 

 










Legend :    VFR   Marginal VFR   IFR   Intensive IFR   Very Intensive IFR
Visi :
Ceiling :
>= 8 km
>= 3000ft
5 to 8 km
1000 to 3000 ft
1500m to 5 km
500 to 1000 ft
800 to 1500m
200 to 500 ft
< 800m
< 200 ft
Symbols :   Thunderstorms  Fog  Heavy snow  Heavy precipitations  Wind > 20 kt
SIGMETs :     Misc.  Thunderstorms  Icing  Turbulence  Mountain Waves  Volcanic Ashes






- Airport Elevation : 446 ft
- IATA code : VNE


LFRV - Vannes-Meucon

CURRENT METAR :
  • 180430Z AUTO 02004KT 9999 -RADZ BKN041 BKN100 OVC120 15/15 Q1010

EXPIRED METARs :
  • 180400Z AUTO 03004KT 9000 -RA OVC042/// ///TCU 15/15 Q1010
  • 180330Z AUTO 03004KT 9999 -RA SCT044/// BKN080/// OVC100/// ///TCU 15/15 Q1010
  • 180300Z AUTO 05004KT 8000 -RA ///TCU 15/15 Q1010
  • 180230Z AUTO 06003KT 7000 RA BKN039/// OVC047/// ///TCU 15/15 Q1011
  • 180200Z AUTO 06004KT 9000 -RA BKN044/// OVC064/// ///CB 15/15 Q1011
  • 180130Z AUTO 04005KT 9999 -RA BKN046/// BKN068/// OVC078/// ///CB 16/15 Q1011
  • 180100Z AUTO 03005KT 9999 BKN046/// BKN070/// OVC110/// ///TCU 16/15 Q1011
  • 180030Z AUTO 05004KT 9999 OVC049 16/16 Q1011
  • 180000Z AUTO 04003KT CAVOK 16/16 Q1012

TAF N/A



MET'MAP, your aeronautical weather chart ! - Copyright ORBIFLY December 2007 - Disclaimer

ORBIFLY MET'MAP TEAM :

Programming & Development : Alexandra Zaïnal
Original concept : Baudouin d'Aumeries
Technical & hardware support : Manuel Goepfert
Assistance : Marc-Olivier Méhu




SOURCES & CREDITS :

   NOAA